DLH2016 EGKK-KJFK
Flight info
| Callsign | DLH2016 |
|---|---|
| Flight time | N/A |
| Altitude | 40000 |
| Route | NOVMA L620 SAM N19 ADKIK DCT MOPAT DCT NEBIN/M084F390 DCT 5330N02000W 5330N03000W 53N040W 52N050W DCT TUDEP/N0489F400 N526A TOPPS DCT ENE PARCH3 |
| Aircraft | A359/H-SDE2E3GHIJ3J4J5LM1ORWXY/LB1D1 |
Departure
| Time | N/A |
|---|---|
| Airport | London Gatwick Airport (EGKK) |
Arrival
| Time | 2026-05-04 00:18 |
|---|---|
| Airport | John F. Kennedy International Airport (KJFK) |
| Time | Latitude | Longitude | Altitude | Speed | Heading |
|---|---|---|---|---|---|
| 2026-05-03 22:59 | 45.12210 | -68.08606 | 39059 ft | 442 kts | 229° |
| 2026-05-03 22:59 | 45.10119 | -68.11723 | 39321 ft | 433 kts | 229° |
| 2026-05-03 22:59 | 45.08047 | -68.14808 | 39592 ft | 431 kts | 229° |
| 2026-05-03 23:00 | 45.03983 | -68.20973 | 39672 ft | 428 kts | 230° |
| 2026-05-03 23:00 | 44.99964 | -68.27188 | 39675 ft | 428 kts | 230° |
| 2026-05-03 23:01 | 44.95989 | -68.33361 | 39674 ft | 427 kts | 230° |
| 2026-05-03 23:01 | 44.91979 | -68.39572 | 39680 ft | 427 kts | 230° |
| 2026-05-03 23:02 | 44.88004 | -68.45709 | 39678 ft | 426 kts | 230° |
| 2026-05-03 23:02 | 44.84005 | -68.51867 | 39686 ft | 425 kts | 230° |
| 2026-05-03 23:03 | 44.80012 | -68.58001 | 39687 ft | 424 kts | 230° |
| 2026-05-03 23:03 | 44.76024 | -68.64114 | 39691 ft | 423 kts | 230° |
| 2026-05-03 23:04 | 44.72067 | -68.70168 | 39681 ft | 423 kts | 230° |
| 2026-05-03 23:04 | 44.68091 | -68.76239 | 39688 ft | 421 kts | 230° |
| 2026-05-03 23:05 | 44.64119 | -68.82287 | 39696 ft | 420 kts | 230° |
| 2026-05-03 23:05 | 44.60147 | -68.88323 | 39691 ft | 421 kts | 230° |
| 2026-05-03 23:06 | 44.56201 | -68.94307 | 39698 ft | 420 kts | 230° |
| 2026-05-03 23:06 | 44.55035 | -68.96072 | 39698 ft | 420 kts | 230° |
| 2026-05-03 23:07 | 44.51059 | -69.02085 | 39700 ft | 420 kts | 230° |
| 2026-05-03 23:07 | 44.47080 | -69.08089 | 39701 ft | 420 kts | 230° |
| 2026-05-03 23:08 | 44.43103 | -69.14077 | 39703 ft | 420 kts | 230° |
| 2026-05-03 23:08 | 44.39148 | -69.20019 | 39702 ft | 420 kts | 230° |
| 2026-05-03 23:09 | 44.35174 | -69.25978 | 39708 ft | 419 kts | 230° |
| 2026-05-03 23:09 | 44.31192 | -69.31936 | 39703 ft | 420 kts | 230° |
| 2026-05-03 23:10 | 44.27206 | -69.37886 | 39714 ft | 419 kts | 230° |
| 2026-05-03 23:10 | 44.23242 | -69.43791 | 39722 ft | 420 kts | 230° |
| 2026-05-03 23:11 | 44.19252 | -69.49724 | 39733 ft | 419 kts | 230° |
| 2026-05-03 23:11 | 44.15256 | -69.55651 | 39737 ft | 419 kts | 230° |
| 2026-05-03 23:12 | 44.11262 | -69.61564 | 39745 ft | 419 kts | 230° |
| 2026-05-03 23:12 | 44.07267 | -69.67465 | 39749 ft | 419 kts | 230° |
| 2026-05-03 23:13 | 44.03293 | -69.73323 | 39750 ft | 419 kts | 230° |
| 2026-05-03 23:13 | 43.99292 | -69.79209 | 39747 ft | 419 kts | 230° |
| 2026-05-03 23:14 | 43.95289 | -69.85084 | 39776 ft | 419 kts | 230° |
| 2026-05-03 23:14 | 43.91279 | -69.90959 | 39775 ft | 419 kts | 230° |
| 2026-05-03 23:15 | 43.87275 | -69.96810 | 39775 ft | 418 kts | 230° |
| 2026-05-03 23:15 | 43.84588 | -70.00731 | 39777 ft | 419 kts | 230° |
| 2026-05-03 23:16 | 43.80578 | -70.06573 | 39773 ft | 418 kts | 230° |
| 2026-05-03 23:16 | 43.76561 | -70.12412 | 39773 ft | 419 kts | 230° |
| 2026-05-03 23:17 | 43.72536 | -70.18251 | 39775 ft | 419 kts | 229° |
| 2026-05-03 23:17 | 43.68537 | -70.24040 | 39775 ft | 420 kts | 229° |
| 2026-05-03 23:18 | 43.64494 | -70.29881 | 39782 ft | 420 kts | 229° |
| 2026-05-03 23:18 | 43.60453 | -70.35707 | 39775 ft | 420 kts | 229° |
| 2026-05-03 23:19 | 43.56430 | -70.41493 | 39776 ft | 420 kts | 229° |
| 2026-05-03 23:19 | 43.52379 | -70.47309 | 39779 ft | 421 kts | 229° |
| 2026-05-03 23:20 | 43.48320 | -70.53125 | 39809 ft | 421 kts | 229° |
| 2026-05-03 23:20 | 43.44144 | -70.58790 | 39812 ft | 424 kts | 223° |
| 2026-05-03 23:21 | 43.39107 | -70.63016 | 39815 ft | 434 kts | 208° |
| 2026-05-03 23:21 | 43.33406 | -70.65895 | 39813 ft | 437 kts | 206° |
| 2026-05-03 23:22 | 43.24824 | -70.70088 | 39810 ft | 437 kts | 206° |
| 2026-05-03 23:22 | 43.19109 | -70.72886 | 39803 ft | 437 kts | 206° |
| 2026-05-03 23:23 | 43.13382 | -70.75688 | 39803 ft | 437 kts | 206° |
| 2026-05-03 23:23 | 43.07699 | -70.78463 | 39801 ft | 436 kts | 206° |
| 2026-05-03 23:24 | 43.01975 | -70.81253 | 39802 ft | 436 kts | 206° |
| 2026-05-03 23:24 | 42.96253 | -70.84036 | 39803 ft | 436 kts | 206° |
| 2026-05-03 23:25 | 42.90534 | -70.86813 | 39801 ft | 436 kts | 206° |
| 2026-05-03 23:25 | 42.84857 | -70.89563 | 39830 ft | 436 kts | 206° |
| 2026-05-03 23:26 | 42.79128 | -70.92334 | 39839 ft | 437 kts | 206° |
| 2026-05-03 23:26 | 42.73407 | -70.95095 | 39843 ft | 436 kts | 206° |
| 2026-05-03 23:27 | 42.67680 | -70.97854 | 39840 ft | 437 kts | 206° |
| 2026-05-03 23:27 | 42.61995 | -71.00587 | 39842 ft | 437 kts | 206° |
| 2026-05-03 23:28 | 42.56257 | -71.03340 | 39840 ft | 437 kts | 206° |
| 2026-05-03 23:28 | 42.50520 | -71.06087 | 39839 ft | 437 kts | 206° |
| 2026-05-03 23:29 | 42.44789 | -71.08827 | 39849 ft | 437 kts | 206° |
| 2026-05-03 23:29 | 42.39086 | -71.11547 | 39849 ft | 437 kts | 206° |
| 2026-05-03 23:30 | 42.33355 | -71.14275 | 39850 ft | 437 kts | 206° |
| 2026-05-03 23:30 | 42.27614 | -71.17003 | 39860 ft | 437 kts | 206° |
| 2026-05-03 23:31 | 42.21877 | -71.19724 | 39857 ft | 437 kts | 206° |
| 2026-05-03 23:31 | 42.16140 | -71.22439 | 39857 ft | 437 kts | 206° |
| 2026-05-03 23:32 | 42.10447 | -71.25129 | 39859 ft | 437 kts | 206° |
| 2026-05-03 23:32 | 42.04704 | -71.27838 | 39855 ft | 437 kts | 206° |
| 2026-05-03 23:33 | 41.98968 | -71.30537 | 39868 ft | 437 kts | 206° |
| 2026-05-03 23:33 | 41.93224 | -71.33235 | 39876 ft | 437 kts | 206° |
| 2026-05-03 23:34 | 41.87477 | -71.35930 | 39877 ft | 437 kts | 206° |
| 2026-05-03 23:34 | 41.84653 | -71.37251 | 39749 ft | 433 kts | 206° |
| 2026-05-03 23:34 | 41.81804 | -71.38581 | 39201 ft | 433 kts | 206° |
| 2026-05-03 23:35 | 41.78959 | -71.39912 | 38626 ft | 434 kts | 206° |
| 2026-05-03 23:35 | 41.76109 | -71.41247 | 37961 ft | 433 kts | 206° |
| 2026-05-03 23:35 | 41.73348 | -71.42788 | 37238 ft | 427 kts | 213° |
| 2026-05-03 23:35 | 41.70827 | -71.44818 | 36522 ft | 420 kts | 221° |
| 2026-05-03 23:36 | 41.68549 | -71.47232 | 35815 ft | 418 kts | 224° |
| 2026-05-03 23:36 | 41.66320 | -71.49743 | 35136 ft | 418 kts | 225° |
| 2026-05-03 23:36 | 41.64130 | -71.52210 | 34602 ft | 415 kts | 224° |
| 2026-05-03 23:36 | 41.61933 | -71.54671 | 34131 ft | 411 kts | 224° |
| 2026-05-03 23:37 | 41.59750 | -71.57111 | 33933 ft | 408 kts | 224° |
| 2026-05-03 23:37 | 41.57552 | -71.59566 | 32830 ft | 418 kts | 224° |
| 2026-05-03 23:37 | 41.55271 | -71.62114 | 31592 ft | 433 kts | 225° |
| 2026-05-03 23:37 | 41.52956 | -71.64687 | 31032 ft | 431 kts | 225° |
| 2026-05-03 23:38 | 41.51436 | -71.66370 | 30819 ft | 426 kts | 225° |
| 2026-05-03 23:38 | 41.48440 | -71.69685 | 30278 ft | 419 kts | 225° |
| 2026-05-03 23:38 | 41.46215 | -71.72150 | 29789 ft | 415 kts | 226° |
| 2026-05-03 23:38 | 41.43999 | -71.74604 | 29220 ft | 411 kts | 226° |
| 2026-05-03 23:39 | 41.41808 | -71.77029 | 28688 ft | 408 kts | 226° |
| 2026-05-03 23:39 | 41.39637 | -71.79429 | 28139 ft | 404 kts | 226° |
| 2026-05-03 23:39 | 41.37484 | -71.81807 | 27576 ft | 401 kts | 226° |
| 2026-05-03 23:39 | 41.35342 | -71.84171 | 27074 ft | 398 kts | 226° |
| 2026-05-03 23:40 | 41.33931 | -71.85727 | 26725 ft | 396 kts | 226° |
| 2026-05-03 23:40 | 41.31816 | -71.88057 | 26191 ft | 393 kts | 226° |
| 2026-05-03 23:40 | 41.29037 | -71.91117 | 25545 ft | 390 kts | 226° |
| 2026-05-03 23:40 | 41.26956 | -71.93411 | 25056 ft | 387 kts | 226° |
| 2026-05-03 23:41 | 41.24889 | -71.95683 | 24567 ft | 384 kts | 226° |
| 2026-05-03 23:41 | 41.22833 | -71.97936 | 24116 ft | 381 kts | 226° |
| 2026-05-03 23:41 | 41.21484 | -71.99414 | 23965 ft | 379 kts | 226° |
| 2026-05-03 23:41 | 41.19449 | -72.01645 | 23897 ft | 380 kts | 226° |
| 2026-05-03 23:42 | 41.17415 | -72.03875 | 23917 ft | 380 kts | 226° |
| 2026-05-03 23:42 | 41.14727 | -72.06814 | 23309 ft | 377 kts | 226° |
| 2026-05-03 23:42 | 41.12686 | -72.09051 | 22341 ft | 384 kts | 226° |
| 2026-05-03 23:42 | 41.11349 | -72.10604 | 21816 ft | 383 kts | 231° |
| 2026-05-03 23:43 | 41.09775 | -72.13318 | 21472 ft | 362 kts | 247° |
| 2026-05-03 23:43 | 41.08831 | -72.16318 | 21128 ft | 348 kts | 256° |
| 2026-05-03 23:43 | 41.08080 | -72.19351 | 20616 ft | 344 kts | 257° |
| 2026-05-03 23:43 | 41.07353 | -72.22355 | 20094 ft | 342 kts | 257° |
| 2026-05-03 23:44 | 41.06624 | -72.25344 | 19569 ft | 340 kts | 257° |
| 2026-05-03 23:44 | 41.05893 | -72.28315 | 19051 ft | 338 kts | 257° |
| 2026-05-03 23:44 | 41.05162 | -72.31271 | 18540 ft | 336 kts | 257° |
| 2026-05-03 23:44 | 41.04450 | -72.34141 | 18023 ft | 335 kts | 257° |
| 2026-05-03 23:45 | 41.03733 | -72.37024 | 17463 ft | 333 kts | 257° |
| 2026-05-03 23:45 | 41.03011 | -72.39924 | 16922 ft | 331 kts | 257° |
| 2026-05-03 23:45 | 41.02293 | -72.42803 | 16385 ft | 328 kts | 257° |
| 2026-05-03 23:45 | 41.01578 | -72.45663 | 15852 ft | 326 kts | 256° |
| 2026-05-03 23:46 | 41.00867 | -72.48505 | 15322 ft | 324 kts | 257° |
| 2026-05-03 23:46 | 41.00159 | -72.51330 | 14835 ft | 322 kts | 256° |
| 2026-05-03 23:46 | 40.99462 | -72.54107 | 14578 ft | 312 kts | 257° |
| 2026-05-03 23:46 | 40.98786 | -72.56783 | 14389 ft | 301 kts | 257° |
| 2026-05-03 23:47 | 40.98143 | -72.59334 | 14221 ft | 291 kts | 257° |
| 2026-05-03 23:47 | 40.97515 | -72.61825 | 14064 ft | 280 kts | 257° |
| 2026-05-03 23:47 | 40.96910 | -72.64221 | 13900 ft | 270 kts | 257° |
| 2026-05-03 23:47 | 40.96326 | -72.66536 | 13757 ft | 260 kts | 257° |
| 2026-05-03 23:48 | 40.95763 | -72.68768 | 13608 ft | 251 kts | 257° |
| 2026-05-03 23:48 | 40.95220 | -72.70913 | 13452 ft | 242 kts | 258° |
| 2026-05-03 23:48 | 40.94696 | -72.72981 | 13315 ft | 232 kts | 258° |
| 2026-05-03 23:48 | 40.94193 | -72.74967 | 13178 ft | 223 kts | 258° |
| 2026-05-03 23:49 | 40.93662 | -72.76857 | 13047 ft | 217 kts | 254° |
| 2026-05-03 23:49 | 40.92993 | -72.78588 | 12907 ft | 213 kts | 247° |
| 2026-05-03 23:49 | 40.92140 | -72.80182 | 12681 ft | 213 kts | 239° |
| 2026-05-03 23:49 | 40.91106 | -72.81607 | 12392 ft | 217 kts | 231° |
| 2026-05-03 23:50 | 40.89913 | -72.82863 | 12103 ft | 220 kts | 226° |
| 2026-05-03 23:50 | 40.88673 | -72.84043 | 11814 ft | 220 kts | 225° |
| 2026-05-03 23:50 | 40.87431 | -72.85217 | 11531 ft | 219 kts | 226° |
| 2026-05-03 23:50 | 40.86200 | -72.86386 | 11306 ft | 216 kts | 226° |
| 2026-05-03 23:51 | 40.85014 | -72.87506 | 11258 ft | 202 kts | 226° |
| 2026-05-03 23:51 | 40.83912 | -72.88544 | 11181 ft | 188 kts | 227° |
| 2026-05-03 23:51 | 40.82895 | -72.89509 | 11080 ft | 177 kts | 229° |
| 2026-05-03 23:51 | 40.81925 | -72.90434 | 10956 ft | 168 kts | 230° |
| 2026-05-03 23:52 | 40.80990 | -72.91335 | 10762 ft | 165 kts | 230° |
| 2026-05-03 23:52 | 40.80068 | -72.92229 | 10514 ft | 164 kts | 230° |
| 2026-05-03 23:52 | 40.79132 | -72.93142 | 10149 ft | 173 kts | 230° |
| 2026-05-03 23:52 | 40.78135 | -72.94118 | 9735 ft | 183 kts | 229° |
| 2026-05-03 23:53 | 40.77096 | -72.95116 | 9395 ft | 185 kts | 229° |
| 2026-05-03 23:53 | 40.76056 | -72.96104 | 9123 ft | 184 kts | 228° |
| 2026-05-03 23:53 | 40.75042 | -72.97065 | 8802 ft | 181 kts | 228° |
| 2026-05-03 23:53 | 40.74024 | -72.98032 | 8460 ft | 180 kts | 228° |
| 2026-05-03 23:54 | 40.73012 | -72.98997 | 8119 ft | 179 kts | 228° |
| 2026-05-03 23:54 | 40.72001 | -72.99962 | 7761 ft | 179 kts | 228° |
| 2026-05-03 23:54 | 40.70998 | -73.00919 | 7427 ft | 177 kts | 228° |
| 2026-05-03 23:54 | 40.70022 | -73.01890 | 7109 ft | 173 kts | 231° |
| 2026-05-03 23:55 | 40.69213 | -73.03006 | 6767 ft | 165 kts | 244° |
| 2026-05-03 23:55 | 40.68663 | -73.04281 | 6432 ft | 157 kts | 257° |
| 2026-05-03 23:55 | 40.68375 | -73.05629 | 6097 ft | 150 kts | 269° |
| 2026-05-03 23:55 | 40.68265 | -73.06969 | 5752 ft | 149 kts | 272° |
| 2026-05-03 23:56 | 40.68185 | -73.08326 | 5393 ft | 149 kts | 271° |
| 2026-05-03 23:56 | 40.68100 | -73.09687 | 5046 ft | 149 kts | 270° |
| 2026-05-03 23:56 | 40.68011 | -73.11046 | 4702 ft | 149 kts | 270° |
| 2026-05-03 23:56 | 40.67920 | -73.12412 | 4348 ft | 149 kts | 269° |
| 2026-05-03 23:57 | 40.67827 | -73.13774 | 4052 ft | 147 kts | 269° |
| 2026-05-03 23:57 | 40.67735 | -73.15099 | 4002 ft | 145 kts | 269° |
| 2026-05-03 23:57 | 40.67644 | -73.16434 | 3999 ft | 147 kts | 269° |
| 2026-05-03 23:57 | 40.67552 | -73.17776 | 3997 ft | 147 kts | 269° |
| 2026-05-03 23:58 | 40.67460 | -73.19101 | 4000 ft | 147 kts | 269° |
| 2026-05-03 23:58 | 40.67367 | -73.20446 | 4002 ft | 148 kts | 269° |
| 2026-05-03 23:58 | 40.67273 | -73.21794 | 4000 ft | 147 kts | 269° |
| 2026-05-03 23:58 | 40.67180 | -73.23134 | 4008 ft | 147 kts | 269° |
| 2026-05-03 23:59 | 40.67087 | -73.24470 | 4007 ft | 146 kts | 269° |
| 2026-05-03 23:59 | 40.67004 | -73.25657 | 4003 ft | 146 kts | 269° |
| 2026-05-03 23:59 | 40.66912 | -73.26978 | 4015 ft | 147 kts | 269° |
| 2026-05-03 23:59 | 40.66817 | -73.28322 | 4016 ft | 148 kts | 269° |
| 2026-05-04 00:00 | 40.66722 | -73.29674 | 4017 ft | 148 kts | 269° |
| 2026-05-04 00:00 | 40.66628 | -73.31020 | 4020 ft | 147 kts | 269° |
| 2026-05-04 00:00 | 40.66533 | -73.32359 | 4019 ft | 146 kts | 269° |
| 2026-05-04 00:00 | 40.66439 | -73.33694 | 4018 ft | 146 kts | 269° |
| 2026-05-04 00:01 | 40.66345 | -73.35026 | 4017 ft | 146 kts | 269° |
| 2026-05-04 00:01 | 40.66250 | -73.36360 | 4020 ft | 146 kts | 269° |
| 2026-05-04 00:01 | 40.66156 | -73.37698 | 4020 ft | 147 kts | 269° |
| 2026-05-04 00:01 | 40.66061 | -73.39037 | 4018 ft | 147 kts | 269° |
| 2026-05-04 00:02 | 40.65967 | -73.40352 | 4020 ft | 146 kts | 269° |
| 2026-05-04 00:02 | 40.65873 | -73.41685 | 4019 ft | 146 kts | 269° |
| 2026-05-04 00:02 | 40.65777 | -73.43018 | 4019 ft | 146 kts | 269° |
| 2026-05-04 00:02 | 40.65682 | -73.44355 | 4019 ft | 147 kts | 269° |
| 2026-05-04 00:03 | 40.65586 | -73.45693 | 4018 ft | 147 kts | 269° |
| 2026-05-04 00:03 | 40.65489 | -73.47029 | 4018 ft | 147 kts | 269° |
| 2026-05-04 00:03 | 40.65394 | -73.48362 | 4018 ft | 146 kts | 269° |
| 2026-05-04 00:03 | 40.65298 | -73.49694 | 4016 ft | 146 kts | 269° |
| 2026-05-04 00:04 | 40.65204 | -73.51009 | 4017 ft | 146 kts | 269° |
| 2026-05-04 00:04 | 40.65108 | -73.52340 | 4017 ft | 146 kts | 269° |
| 2026-05-04 00:04 | 40.65012 | -73.53670 | 4016 ft | 146 kts | 269° |
| 2026-05-04 00:04 | 40.64915 | -73.54997 | 4018 ft | 145 kts | 269° |
| 2026-05-04 00:05 | 40.64819 | -73.56319 | 4017 ft | 145 kts | 269° |
| 2026-05-04 00:05 | 40.64724 | -73.57639 | 4014 ft | 145 kts | 269° |
| 2026-05-04 00:05 | 40.64627 | -73.58961 | 4023 ft | 145 kts | 269° |
| 2026-05-04 00:05 | 40.64446 | -73.60263 | 4023 ft | 149 kts | 259° |
| 2026-05-04 00:06 | 40.64025 | -73.61524 | 4022 ft | 154 kts | 246° |
| 2026-05-04 00:06 | 40.63339 | -73.62626 | 4026 ft | 159 kts | 231° |
| 2026-05-04 00:06 | 40.62410 | -73.63470 | 4018 ft | 166 kts | 215° |
| 2026-05-04 00:06 | 40.61292 | -73.63946 | 4023 ft | 173 kts | 198° |
| 2026-05-04 00:07 | 40.60069 | -73.63966 | 4026 ft | 180 kts | 180° |
| 2026-05-04 00:07 | 40.58850 | -73.63470 | 4025 ft | 187 kts | 160° |
| 2026-05-04 00:07 | 40.57785 | -73.62459 | 4027 ft | 192 kts | 139° |
| 2026-05-04 00:07 | 40.56999 | -73.61028 | 4028 ft | 193 kts | 120° |
| 2026-05-04 00:08 | 40.56406 | -73.59483 | 4017 ft | 187 kts | 116° |
| 2026-05-04 00:08 | 40.55877 | -73.58034 | 4012 ft | 167 kts | 116° |
| 2026-05-04 00:08 | 40.55380 | -73.56692 | 4031 ft | 162 kts | 117° |
| 2026-05-04 00:08 | 40.54881 | -73.55367 | 4026 ft | 162 kts | 117° |
| 2026-05-04 00:09 | 40.54378 | -73.54042 | 4023 ft | 163 kts | 117° |
| 2026-05-04 00:09 | 40.53980 | -73.52631 | 3785 ft | 170 kts | 103° |
| 2026-05-04 00:09 | 40.53950 | -73.51028 | 3236 ft | 178 kts | 76° |
| 2026-05-04 00:09 | 40.54391 | -73.49596 | 3001 ft | 159 kts | 50° |
| 2026-05-04 00:10 | 40.55079 | -73.48600 | 3026 ft | 140 kts | 30° |
| 2026-05-04 00:10 | 40.55887 | -73.47976 | 3026 ft | 134 kts | 12° |
| 2026-05-04 00:10 | 40.56770 | -73.47696 | 3028 ft | 129 kts | 356° |
| 2026-05-04 00:10 | 40.57641 | -73.47749 | 3012 ft | 123 kts | 341° |
| 2026-05-04 00:11 | 40.58440 | -73.48097 | 3026 ft | 120 kts | 328° |
| 2026-05-04 00:11 | 40.59126 | -73.48692 | 3027 ft | 117 kts | 315° |
| 2026-05-04 00:11 | 40.59661 | -73.49477 | 3022 ft | 115 kts | 302° |
| 2026-05-04 00:11 | 40.60033 | -73.50394 | 3011 ft | 114 kts | 290° |
| 2026-05-04 00:12 | 40.60097 | -73.51436 | 3028 ft | 115 kts | 271° |
| 2026-05-04 00:12 | 40.60078 | -73.52493 | 3011 ft | 116 kts | 272° |
| 2026-05-04 00:12 | 40.60058 | -73.53537 | 3022 ft | 116 kts | 271° |
| 2026-05-04 00:12 | 40.60032 | -73.54593 | 3023 ft | 115 kts | 271° |
| 2026-05-04 00:13 | 40.60001 | -73.55642 | 3019 ft | 114 kts | 271° |
| 2026-05-04 00:13 | 40.59968 | -73.56685 | 3018 ft | 114 kts | 271° |
| 2026-05-04 00:13 | 40.59934 | -73.57727 | 3026 ft | 114 kts | 271° |
| 2026-05-04 00:13 | 40.59898 | -73.58768 | 3035 ft | 114 kts | 271° |
| 2026-05-04 00:14 | 40.59860 | -73.59816 | 3025 ft | 115 kts | 271° |
| 2026-05-04 00:14 | 40.59823 | -73.60868 | 3030 ft | 115 kts | 270° |
| 2026-05-04 00:14 | 40.59784 | -73.61923 | 3025 ft | 115 kts | 270° |
| 2026-05-04 00:14 | 40.59744 | -73.62973 | 3028 ft | 115 kts | 270° |
| 2026-05-04 00:15 | 40.59738 | -73.64008 | 3014 ft | 115 kts | 275° |
| 2026-05-04 00:15 | 40.59848 | -73.65040 | 3031 ft | 114 kts | 284° |
| 2026-05-04 00:15 | 40.60076 | -73.66038 | 3010 ft | 113 kts | 296° |
| 2026-05-04 00:15 | 40.60413 | -73.66984 | 3010 ft | 115 kts | 296° |
| 2026-05-04 00:16 | 40.60793 | -73.67911 | 3021 ft | 115 kts | 296° |
| 2026-05-04 00:16 | 40.61181 | -73.68830 | 2973 ft | 116 kts | 297° |
| 2026-05-04 00:16 | 40.61588 | -73.69764 | 2557 ft | 124 kts | 297° |
| 2026-05-04 00:16 | 40.62061 | -73.70829 | 1820 ft | 148 kts | 299° |
| 2026-05-04 00:17 | 40.62616 | -73.72039 | 1230 ft | 156 kts | 298° |
| 2026-05-04 00:17 | 40.63157 | -73.73249 | 701 ft | 155 kts | 298° |
| 2026-05-04 00:17 | 40.63698 | -73.74450 | 283 ft | 147 kts | 301° |
| 2026-05-04 00:17 | 40.64189 | -73.75519 | 165 ft | 126 kts | 299° |
| 2026-05-04 00:18 | 40.64620 | -73.76484 | 35 ft | 117 kts | 299° |
| 2026-05-04 00:18 | 40.64999 | -73.77335 | 29 ft | 94 kts | 303° |
| 2026-05-04 00:18 | 40.65243 | -73.77874 | 25 ft | 23 kts | 300° |
| 2026-05-04 00:18 | 40.65267 | -73.77927 | 28 ft | 5 kts | 300° |
| 2026-05-04 00:19 | 40.65297 | -73.78017 | 28 ft | 16 kts | 287° |
| 2026-05-04 00:19 | 40.65318 | -73.78221 | 26 ft | 23 kts | 271° |
| 2026-05-04 00:19 | 40.65326 | -73.78461 | 22 ft | 30 kts | 259° |
| 2026-05-04 00:19 | 40.65295 | -73.78589 | 24 ft | 18 kts | 251° |
| 2026-05-04 00:20 | 40.65227 | -73.78800 | 22 ft | 34 kts | 252° |
| 2026-05-04 00:20 | 40.65127 | -73.78992 | 22 ft | 10 kts | 199° |
| 2026-05-04 00:20 | 40.65037 | -73.78977 | 22 ft | 12 kts | 173° |
| 2026-05-04 00:20 | 40.64957 | -73.78982 | 22 ft | 12 kts | 194° |
| 2026-05-04 00:21 | 40.64937 | -73.78988 | 22 ft | 0 kts | 193° |
| 2026-05-04 00:21 | 40.64932 | -73.78985 | 22 ft | 0 kts | 199° |